createdAt,value
2022-09-11T00:01:13.307Z,44.03
2022-09-11T00:03:42.518Z,45.28
2022-09-11T00:06:11.651Z,44.25
2022-09-11T00:08:40.678Z,46.03
2022-09-11T00:11:13.668Z,49.67
2022-09-11T00:13:40.728Z,46.80
2022-09-11T00:16:19.054Z,47.70
2022-09-11T00:18:46.825Z,49.83
2022-09-11T00:21:13.709Z,46.42
2022-09-11T00:23:40.586Z,45.80
2022-09-11T00:26:07.453Z,46.97
2022-09-11T00:28:34.504Z,48.08
2022-09-11T00:31:16.056Z,49.47
2022-09-11T00:33:44.645Z,49.08
2022-09-11T00:36:19.599Z,49.65
2022-09-11T00:38:47.045Z,50.25
2022-09-11T00:41:17.134Z,51.45
2022-09-11T00:44:18.099Z,51.00
2022-09-11T00:46:59.869Z,49.42
2022-09-11T00:49:46.559Z,49.55
2022-09-11T00:52:34.420Z,48.47
2022-09-11T00:55:08.834Z,49.50
2022-09-11T00:57:40.924Z,44.97
2022-09-11T01:00:09.291Z,52.30
2022-09-11T01:02:38.455Z,48.63
2022-09-11T01:05:06.078Z,45.25
2022-09-11T01:07:33.976Z,53.17
2022-09-11T01:10:00.960Z,47.80
2022-09-11T01:12:27.803Z,49.85
2022-09-11T01:15:35.752Z,52.75
2022-09-11T01:18:16.620Z,55.60
2022-09-11T01:21:24.549Z,49.90
2022-09-11T01:24:26.039Z,59.38
2022-09-11T01:27:35.463Z,61.80
2022-09-11T01:30:11.697Z,55.95
2022-09-11T01:33:02.658Z,55.42
2022-09-11T01:35:50.917Z,56.90
2022-09-11T01:38:29.528Z,55.72
2022-09-11T01:41:07.795Z,76.97
2022-09-11T01:43:42.660Z,58.88
2022-09-11T01:46:13.492Z,64.90
2022-09-11T01:48:46.262Z,57.78
2022-09-11T01:51:23.140Z,62.88
2022-09-11T01:53:53.500Z,60.72
2022-09-11T01:56:37.810Z,62.60
2022-09-11T01:59:40.517Z,60.20
2022-09-11T02:02:13.386Z,62.83
2022-09-11T02:04:46.318Z,66.60
2022-09-11T02:07:30.235Z,64.65
2022-09-11T02:10:02.583Z,71.38
2022-09-11T02:12:46.636Z,73.82
2022-09-11T02:15:15.929Z,73.53
2022-09-11T02:17:44.719Z,70.40
2022-09-11T02:20:11.906Z,82.22
2022-09-11T02:22:38.748Z,79.20
2022-09-11T02:25:06.266Z,74.20
2022-09-11T02:27:33.656Z,69.93
2022-09-11T02:30:01.154Z,68.18
2022-09-11T02:32:32.447Z,65.10
2022-09-11T02:35:00.432Z,68.40
2022-09-11T02:37:31.386Z,76.45
2022-09-11T02:40:19.625Z,68.95
2022-09-11T02:42:49.258Z,65.20
2022-09-11T02:45:29.512Z,72.10
2022-09-11T02:48:11.858Z,69.90
2022-09-11T02:51:06.940Z,70.65
2022-09-11T02:53:49.729Z,68.85
2022-09-11T02:56:48.595Z,73.32
2022-09-11T02:59:53.757Z,74.22
2022-09-11T03:02:21.266Z,81.55
2022-09-11T03:04:50.400Z,67.63
2022-09-11T03:07:17.984Z,75.85
2022-09-11T03:09:44.890Z,70.75
2022-09-11T03:12:19.107Z,71.43
2022-09-11T03:14:49.608Z,68.75
2022-09-11T03:17:17.141Z,72.72
2022-09-11T03:19:44.123Z,71.28
2022-09-11T03:22:11.271Z,70.55
2022-09-11T03:24:39.659Z,70.95
2022-09-11T03:27:07.091Z,81.03
2022-09-11T03:29:35.085Z,73.03
2022-09-11T03:32:02.434Z,70.70
2022-09-11T03:34:29.858Z,72.22
2022-09-11T03:36:56.781Z,69.82
2022-09-11T03:39:24.538Z,70.65
2022-09-11T03:41:51.482Z,78.05
2022-09-11T03:44:18.300Z,81.75
2022-09-11T03:46:45.168Z,74.90
2022-09-11T03:49:12.600Z,70.28
2022-09-11T03:51:39.529Z,67.57
2022-09-11T03:54:07.272Z,69.13
2022-09-11T03:56:34.504Z,69.57
2022-09-11T03:59:01.325Z,63.63
2022-09-11T04:01:29.084Z,66.13
2022-09-11T04:03:57.118Z,61.97
2022-09-11T04:06:35.185Z,60.63
2022-09-11T04:09:03.832Z,60.72
2022-09-11T04:11:36.710Z,64.80
2022-09-11T04:14:07.772Z,67.13
2022-09-11T04:16:36.884Z,61.38
2022-09-11T04:19:03.867Z,65.05
2022-09-11T04:21:34.377Z,60.63
2022-09-11T04:24:01.826Z,60.65
2022-09-11T04:26:32.045Z,59.63
2022-09-11T04:29:06.689Z,55.10
2022-09-11T04:31:36.156Z,57.42
2022-09-11T04:34:03.392Z,61.03
2022-09-11T04:36:33.985Z,62.63
2022-09-11T04:39:01.650Z,61.45
2022-09-11T04:41:29.496Z,63.28
2022-09-11T04:44:05.524Z,61.10
2022-09-11T04:46:37.781Z,62.63
2022-09-11T04:49:09.048Z,63.30
2022-09-11T04:51:38.271Z,61.75
2022-09-11T04:54:07.761Z,61.83
2022-09-11T04:56:40.114Z,63.25
2022-09-11T04:59:19.774Z,61.38
2022-09-11T05:02:06.953Z,60.55
2022-09-11T05:04:37.703Z,58.10
2022-09-11T05:07:04.612Z,59.45
2022-09-11T05:09:31.436Z,57.65
2022-09-11T05:11:58.917Z,57.47
2022-09-11T05:14:30.970Z,59.47
2022-09-11T05:16:57.890Z,57.05
2022-09-11T05:19:26.846Z,57.60
2022-09-11T05:21:53.845Z,56.35
2022-09-11T05:24:20.638Z,57.67
2022-09-11T05:26:47.582Z,60.13
2022-09-11T05:29:15.989Z,58.95
2022-09-11T05:31:48.305Z,58.78
2022-09-11T05:34:18.654Z,55.90
2022-09-11T05:36:45.937Z,55.47
2022-09-11T05:39:12.887Z,58.83
2022-09-11T05:41:40.768Z,54.75
2022-09-11T05:44:07.718Z,58.88
2022-09-11T05:46:37.364Z,57.28
2022-09-11T05:49:04.274Z,58.60
2022-09-11T05:51:35.740Z,57.35
2022-09-11T05:54:04.029Z,57.78
2022-09-11T05:56:31.941Z,58.72
2022-09-11T05:59:03.433Z,59.60
2022-09-11T06:01:36.812Z,56.65
2022-09-11T06:04:15.160Z,58.72
2022-09-11T06:06:47.924Z,57.35
2022-09-11T06:09:15.738Z,57.63
2022-09-11T06:11:42.690Z,57.50
2022-09-11T06:14:09.967Z,54.45
2022-09-11T06:16:37.225Z,55.30
2022-09-11T06:19:10.553Z,55.05
2022-09-11T06:21:37.383Z,57.13
2022-09-11T06:24:15.219Z,57.15
2022-09-11T06:26:46.416Z,54.08
2022-09-11T06:29:16.778Z,54.08
2022-09-11T06:31:51.192Z,54.10
2022-09-11T06:34:21.402Z,54.72
2022-09-11T06:36:51.839Z,54.58
2022-09-11T06:39:23.300Z,54.72
2022-09-11T06:41:52.559Z,52.75
2022-09-11T06:44:27.415Z,52.58
2022-09-11T06:46:55.236Z,51.85
2022-09-11T06:49:23.698Z,53.58
2022-09-11T06:52:09.383Z,51.95
2022-09-11T06:54:36.791Z,51.53
2022-09-11T06:57:08.935Z,48.47
2022-09-11T06:59:35.958Z,49.20
2022-09-11T07:02:03.038Z,48.75
2022-09-11T07:04:30.132Z,47.30
2022-09-11T07:06:57.234Z,48.40
2022-09-11T07:09:24.758Z,46.03
2022-09-11T07:11:55.474Z,47.55
2022-09-11T07:14:24.747Z,42.58
2022-09-11T07:16:56.953Z,43.30
2022-09-11T07:19:25.965Z,42.55
2022-09-11T07:21:52.949Z,42.58
2022-09-11T07:24:21.809Z,42.03
2022-09-11T07:26:49.354Z,41.95
2022-09-11T07:29:22.478Z,41.72
2022-09-11T07:31:50.335Z,40.63
2022-09-11T07:34:18.769Z,40.45
2022-09-11T07:36:47.884Z,38.83
2022-09-11T07:39:14.654Z,40.85
2022-09-11T07:41:50.875Z,38.40
2022-09-11T07:44:23.889Z,40.70
2022-09-11T07:46:51.510Z,41.25
2022-09-11T07:49:18.515Z,38.53
2022-09-11T07:51:46.262Z,39.20
2022-09-11T07:54:16.632Z,39.78
2022-09-11T07:56:44.010Z,38.88
2022-09-11T07:59:12.128Z,41.30
2022-09-11T08:01:43.359Z,41.25
2022-09-11T08:04:14.324Z,41.80
2022-09-11T08:06:41.998Z,41.38
2022-09-11T08:09:15.878Z,43.83
2022-09-11T08:11:50.278Z,42.33
2022-09-11T08:14:18.680Z,40.45
2022-09-11T08:16:48.481Z,40.78
2022-09-11T08:19:22.886Z,39.05
2022-09-11T08:21:56.095Z,37.25
2022-09-11T08:24:24.800Z,37.17
2022-09-11T08:26:57.103Z,38.38
2022-09-11T08:29:25.657Z,38.78
2022-09-11T08:31:52.757Z,39.08
2022-09-11T08:34:22.118Z,38.03
2022-09-11T08:36:50.912Z,37.13
2022-09-11T08:39:18.821Z,35.95
2022-09-11T08:41:56.534Z,36.90
2022-09-11T08:44:29.398Z,36.92
2022-09-11T08:47:15.065Z,34.90
2022-09-11T08:49:47.105Z,33.92
2022-09-11T08:52:15.764Z,33.80
2022-09-11T08:54:45.932Z,33.97
2022-09-11T08:57:43.012Z,34.28
2022-09-11T09:00:23.450Z,33.45
2022-09-11T09:03:03.056Z,34.70
2022-09-11T09:05:51.910Z,32.78
2022-09-11T09:08:52.083Z,33.00
2022-09-11T09:11:30.343Z,33.05
2022-09-11T09:14:19.142Z,32.30
2022-09-11T09:17:19.009Z,34.85
2022-09-11T09:20:00.589Z,34.92
2022-09-11T09:22:41.453Z,33.30
2022-09-11T09:25:14.366Z,33.85
2022-09-11T09:27:46.414Z,33.05
2022-09-11T09:30:17.944Z,35.67
2022-09-11T09:33:16.930Z,34.25
2022-09-11T09:35:45.131Z,33.55
2022-09-11T09:38:23.865Z,33.58
2022-09-11T09:41:16.474Z,34.08
2022-09-11T09:44:04.865Z,32.28
2022-09-11T09:46:32.359Z,31.60
2022-09-11T09:49:00.714Z,30.63
2022-09-11T09:51:28.184Z,30.92
2022-09-11T09:54:01.926Z,30.73
2022-09-11T09:56:31.782Z,32.30
2022-09-11T09:59:18.418Z,35.22
2022-09-11T10:01:50.089Z,35.15
2022-09-11T10:04:26.965Z,33.95
2022-09-11T10:07:21.725Z,33.03
2022-09-11T10:09:52.170Z,33.13
2022-09-11T10:12:25.563Z,31.63
2022-09-11T10:15:01.346Z,31.80
2022-09-11T10:17:31.360Z,28.25
2022-09-11T10:20:19.364Z,26.75
2022-09-11T10:22:46.444Z,24.17
2022-09-11T10:25:26.893Z,24.52
2022-09-11T10:28:04.920Z,25.92
2022-09-11T10:30:45.977Z,23.98
2022-09-11T10:33:34.202Z,27.58
2022-09-11T10:36:04.357Z,22.10
2022-09-11T10:38:39.368Z,21.73
2022-09-11T10:41:14.227Z,20.65
2022-09-11T10:44:04.094Z,24.23
2022-09-11T10:46:40.154Z,26.17
2022-09-11T10:49:15.447Z,26.08
2022-09-11T10:51:56.989Z,26.67
2022-09-11T10:54:50.654Z,27.08
2022-09-11T10:57:46.002Z,27.40
2022-09-11T11:00:15.984Z,26.80
2022-09-11T11:02:50.609Z,25.02
2022-09-11T11:05:27.134Z,25.67
2022-09-11T11:08:15.535Z,26.98
2022-09-11T11:11:24.344Z,21.98
2022-09-11T11:14:24.918Z,23.52
2022-09-11T11:17:08.627Z,21.45
2022-09-11T11:19:47.515Z,21.48
2022-09-11T11:22:36.366Z,22.42
2022-09-11T11:25:27.981Z,20.33
2022-09-11T11:28:16.692Z,19.67
2022-09-11T11:30:55.481Z,16.70
2022-09-11T11:33:46.944Z,14.80
2022-09-11T11:36:46.041Z,12.25
2022-09-11T11:39:18.945Z,11.45
2022-09-11T11:42:08.424Z,12.25
2022-09-11T11:44:54.045Z,13.32
2022-09-11T11:47:29.478Z,12.65
2022-09-11T11:52:32.200Z,12.52
2022-09-11T11:55:13.430Z,10.45
2022-09-11T11:57:42.807Z,9.75
2022-09-11T12:00:13.417Z,11.65
2022-09-11T12:03:01.529Z,13.40
2022-09-11T12:05:32.835Z,13.68
2022-09-11T12:08:00.290Z,13.93
2022-09-11T12:10:30.081Z,12.13
2022-09-11T12:13:01.574Z,12.75
2022-09-11T12:15:32.193Z,10.57
2022-09-11T12:18:27.680Z,10.05
2022-09-11T12:21:23.497Z,11.07
2022-09-11T12:23:50.258Z,11.00
2022-09-11T12:26:23.284Z,9.82
2022-09-11T12:29:16.028Z,9.32
2022-09-11T12:31:51.716Z,8.90
2022-09-11T12:34:23.155Z,8.30
2022-09-11T12:36:53.862Z,8.68
2022-09-11T12:39:53.207Z,8.02
2022-09-11T12:42:23.265Z,9.25
2022-09-11T12:44:49.998Z,8.88
2022-09-11T12:47:28.453Z,8.02
2022-09-11T12:50:06.260Z,9.13
2022-09-11T12:52:45.422Z,7.47
2022-09-11T12:55:43.426Z,7.80
2022-09-11T12:58:19.485Z,9.70
2022-09-11T13:00:49.641Z,8.38
2022-09-11T13:03:20.902Z,9.60
2022-09-11T13:06:04.716Z,8.80
2022-09-11T13:08:38.846Z,9.68
2022-09-11T13:11:43.863Z,9.45
2022-09-11T13:14:29.022Z,10.30
2022-09-11T13:16:57.708Z,11.30
2022-09-11T13:19:36.510Z,9.73
2022-09-11T13:22:26.309Z,10.20
2022-09-11T13:25:11.946Z,10.18
2022-09-11T13:27:45.615Z,10.43
2022-09-11T13:30:15.207Z,9.45
2022-09-11T13:32:44.298Z,9.15
2022-09-11T13:35:23.876Z,8.45
2022-09-11T13:37:57.730Z,10.35
2022-09-11T13:40:50.924Z,8.60
2022-09-11T13:43:22.943Z,8.77
2022-09-11T13:46:08.554Z,8.88
2022-09-11T13:48:36.337Z,8.15
2022-09-11T13:51:06.182Z,7.80
2022-09-11T13:53:35.498Z,8.25
2022-09-11T13:56:02.613Z,7.70
2022-09-11T13:58:35.808Z,8.05
2022-09-11T14:01:14.291Z,8.50
2022-09-11T14:03:47.108Z,7.78
2022-09-11T14:06:17.667Z,9.23
2022-09-11T14:08:51.648Z,8.63
2022-09-11T14:11:28.978Z,7.93
2022-09-11T14:14:06.900Z,7.45
2022-09-11T14:16:38.098Z,7.68
2022-09-11T14:19:24.566Z,8.10
2022-09-11T14:21:51.877Z,8.38
2022-09-11T14:24:29.406Z,7.80
2022-09-11T14:26:58.260Z,7.50
2022-09-11T14:29:31.504Z,8.45
2022-09-11T14:32:37.245Z,7.38
2022-09-11T14:35:09.570Z,6.77
2022-09-11T14:37:43.986Z,7.68
2022-09-11T14:40:19.373Z,7.40
2022-09-11T14:42:46.824Z,6.88
2022-09-11T14:45:25.890Z,6.78
2022-09-11T14:47:53.418Z,7.57
2022-09-11T14:50:21.202Z,7.78
2022-09-11T14:52:48.046Z,6.13
2022-09-11T14:55:16.229Z,5.97
2022-09-11T14:57:43.032Z,7.05
2022-09-11T15:00:13.534Z,9.05
2022-09-11T15:02:40.365Z,7.35
2022-09-11T15:05:16.148Z,6.70
2022-09-11T15:07:45.473Z,6.70
2022-09-11T15:10:14.110Z,6.00
2022-09-11T15:12:41.189Z,8.27
2022-09-11T15:15:08.624Z,7.75
2022-09-11T15:17:36.352Z,6.65
2022-09-11T15:20:06.661Z,6.07
2022-09-11T15:22:34.611Z,5.80
2022-09-11T15:25:01.928Z,5.60
2022-09-11T15:27:29.021Z,7.05
2022-09-11T15:29:55.786Z,8.30
2022-09-11T15:32:22.826Z,7.20
2022-09-11T15:34:51.626Z,6.90
2022-09-11T15:37:18.522Z,7.70
2022-09-11T15:39:45.429Z,7.20
2022-09-11T15:42:13.561Z,6.25
2022-09-11T15:44:40.669Z,6.47
2022-09-11T15:47:08.866Z,5.65
2022-09-11T15:49:41.098Z,6.00
2022-09-11T15:52:08.703Z,6.50
2022-09-11T15:54:35.646Z,6.03
2022-09-11T15:57:02.508Z,6.80
2022-09-11T15:59:29.282Z,5.97
2022-09-11T16:01:56.348Z,5.72
2022-09-11T16:04:28.280Z,5.38
2022-09-11T16:06:55.194Z,5.10
2022-09-11T16:09:25.491Z,5.57
2022-09-11T16:11:54.651Z,5.68
2022-09-11T16:14:33.774Z,4.70
2022-09-11T16:17:02.378Z,5.45
2022-09-11T16:19:29.906Z,5.35
2022-09-11T16:21:58.818Z,5.07
2022-09-11T16:24:27.304Z,6.60
2022-09-11T16:26:55.847Z,5.28
2022-09-11T16:29:25.609Z,5.28
2022-09-11T16:31:52.582Z,5.57
2022-09-11T16:34:19.584Z,5.55
2022-09-11T16:36:46.601Z,5.20
2022-09-11T16:39:16.326Z,6.15
2022-09-11T16:41:43.134Z,5.45
2022-09-11T16:44:13.659Z,5.55
2022-09-11T16:46:42.309Z,6.28
2022-09-11T16:49:15.388Z,5.88
2022-09-11T16:51:42.958Z,6.05
2022-09-11T16:54:09.841Z,6.07
2022-09-11T16:56:36.845Z,6.10
2022-09-11T16:59:04.134Z,5.75
2022-09-11T17:01:30.980Z,7.40
2022-09-11T17:03:58.344Z,6.30
2022-09-11T17:06:30.118Z,6.50
2022-09-11T17:08:59.828Z,6.68
2022-09-11T17:11:27.974Z,6.60
2022-09-11T17:13:55.138Z,6.57
2022-09-11T17:16:25.330Z,7.43
2022-09-11T17:18:54.590Z,7.47
2022-09-11T17:21:25.957Z,7.30
2022-09-11T17:23:55.116Z,6.70
2022-09-11T17:26:23.522Z,6.70
2022-09-11T17:28:51.936Z,6.82
2022-09-11T17:31:21.064Z,6.53
2022-09-11T17:33:49.154Z,6.35
2022-09-11T17:36:20.315Z,5.07
2022-09-11T17:38:49.124Z,5.68
2022-09-11T17:41:16.496Z,5.20
2022-09-11T17:43:43.361Z,5.45
2022-09-11T17:46:11.806Z,5.00
2022-09-11T17:48:39.905Z,4.90
2022-09-11T17:51:20.053Z,5.00
2022-09-11T17:53:49.875Z,4.75
2022-09-11T17:56:22.302Z,4.30
2022-09-11T17:58:53.747Z,4.35
2022-09-11T18:01:21.359Z,4.88
2022-09-11T18:03:52.915Z,4.70
2022-09-11T18:06:36.349Z,4.18
2022-09-11T18:09:13.755Z,4.45
2022-09-11T18:11:42.690Z,4.03
2022-09-11T18:14:10.461Z,3.72
2022-09-11T18:16:37.805Z,4.10
2022-09-11T18:19:05.515Z,4.25
2022-09-11T18:21:38.335Z,3.88
2022-09-11T18:24:06.882Z,4.45
2022-09-11T18:26:40.992Z,5.00
2022-09-11T18:29:10.968Z,4.53
2022-09-11T18:31:40.492Z,4.35
2022-09-11T18:34:07.354Z,4.07
2022-09-11T18:36:34.289Z,4.82
2022-09-11T18:39:02.434Z,4.65
2022-09-11T18:41:31.483Z,4.78
2022-09-11T18:44:00.469Z,4.03
2022-09-11T18:46:27.668Z,4.32
2022-09-11T18:48:55.956Z,4.10
2022-09-11T18:51:23.034Z,4.05
2022-09-11T18:53:53.434Z,4.13
2022-09-11T18:56:23.118Z,3.65
2022-09-11T18:58:52.231Z,3.92
2022-09-11T19:01:22.810Z,4.00
2022-09-11T19:03:51.808Z,3.70
2022-09-11T19:06:21.550Z,4.28
2022-09-11T19:08:49.170Z,4.05
2022-09-11T19:11:18.338Z,3.42
2022-09-11T19:13:46.914Z,3.17
2022-09-11T19:16:14.644Z,3.63
2022-09-11T19:18:42.091Z,3.65
2022-09-11T19:21:18.332Z,3.70
2022-09-11T19:23:47.771Z,3.70
2022-09-11T19:26:17.942Z,3.95
2022-09-11T19:28:46.147Z,3.75
2022-09-11T19:31:14.893Z,4.45
2022-09-11T19:33:44.393Z,4.88
2022-09-11T19:36:16.776Z,4.22
2022-09-11T19:38:46.279Z,4.97
2022-09-11T19:41:16.334Z,5.10
2022-09-11T19:43:44.599Z,4.57
2022-09-11T19:46:16.114Z,5.32
2022-09-11T19:48:44.281Z,5.63
2022-09-11T19:51:17.122Z,5.38
2022-09-11T19:53:44.378Z,4.97
2022-09-11T19:56:11.974Z,5.13
2022-09-11T19:58:39.112Z,5.97
2022-09-11T20:01:09.164Z,7.20
2022-09-11T20:03:38.637Z,6.60
2022-09-11T20:06:06.310Z,8.10
2022-09-11T20:08:34.644Z,7.78
2022-09-11T20:11:03.992Z,7.50
2022-09-11T20:13:31.098Z,7.65
2022-09-11T20:16:10.253Z,6.88
2022-09-11T20:18:37.876Z,6.78
2022-09-11T20:21:07.393Z,6.97
2022-09-11T20:23:34.643Z,7.15
2022-09-11T20:26:20.239Z,7.93
2022-09-11T20:28:48.212Z,8.25
2022-09-11T20:31:17.752Z,7.55
2022-09-11T20:33:46.058Z,8.45
2022-09-11T20:36:13.726Z,9.23
2022-09-11T20:38:40.627Z,8.27
2022-09-11T20:41:09.516Z,9.80
2022-09-11T20:43:36.410Z,9.50
2022-09-11T20:46:03.569Z,9.15
2022-09-11T20:48:31.310Z,10.32
2022-09-11T20:51:03.315Z,9.88
2022-09-11T20:53:30.200Z,9.95
2022-09-11T20:56:08.758Z,9.15
2022-09-11T20:58:36.047Z,9.05
2022-09-11T21:01:03.737Z,8.82
2022-09-11T21:03:31.266Z,9.52
2022-09-11T21:06:04.970Z,10.00
2022-09-11T21:08:31.816Z,11.82
2022-09-11T21:11:05.125Z,11.60
2022-09-11T21:13:40.775Z,12.90
2022-09-11T21:16:10.765Z,12.27
2022-09-11T21:18:38.556Z,15.20
2022-09-11T21:21:06.024Z,15.55
2022-09-11T21:23:33.290Z,13.77
2022-09-11T21:26:00.347Z,13.55
2022-09-11T21:28:27.102Z,13.05
2022-09-11T21:30:54.051Z,14.20
2022-09-11T21:33:21.044Z,13.95
2022-09-11T21:35:54.571Z,15.15
2022-09-11T21:38:24.531Z,12.07
2022-09-11T21:40:51.992Z,13.93
2022-09-11T21:43:18.878Z,12.40
2022-09-11T21:45:45.863Z,14.05
2022-09-11T21:48:12.762Z,15.75
2022-09-11T21:50:40.392Z,15.95
2022-09-11T21:53:07.879Z,12.90
2022-09-11T21:55:42.497Z,13.50
2022-09-11T21:58:16.516Z,13.23
2022-09-11T22:00:44.072Z,12.82
2022-09-11T22:03:12.564Z,13.35
2022-09-11T22:05:44.173Z,14.38
2022-09-11T22:08:12.530Z,11.77
2022-09-11T22:10:43.722Z,12.32
2022-09-11T22:13:11.029Z,11.90
2022-09-11T22:15:46.207Z,15.00
2022-09-11T22:18:13.172Z,16.20
2022-09-11T22:20:41.471Z,17.00
2022-09-11T22:23:13.296Z,17.02
2022-09-11T22:25:40.895Z,14.82
2022-09-11T22:28:08.445Z,16.63
2022-09-11T22:30:35.518Z,15.15
2022-09-11T22:33:02.326Z,15.45
2022-09-11T22:35:29.163Z,15.88
2022-09-11T22:37:55.963Z,16.50
2022-09-11T22:40:22.762Z,15.85
2022-09-11T22:42:49.900Z,13.63
2022-09-11T22:45:17.194Z,15.90
2022-09-11T22:47:44.077Z,17.42
2022-09-11T22:50:10.960Z,15.98
2022-09-11T22:52:37.865Z,14.90
2022-09-11T22:55:06.534Z,15.93
2022-09-11T22:57:36.609Z,17.55
2022-09-11T23:00:07.595Z,17.05
2022-09-11T23:02:36.475Z,16.10
2022-09-11T23:05:23.392Z,16.95
2022-09-11T23:07:51.244Z,15.52
2022-09-11T23:10:20.932Z,16.45
2022-09-11T23:12:47.858Z,16.92
2022-09-11T23:15:14.663Z,14.55
2022-09-11T23:17:41.489Z,14.88
2022-09-11T23:20:08.540Z,14.23
2022-09-11T23:22:35.326Z,14.80
2022-09-11T23:25:02.238Z,13.88
2022-09-11T23:27:29.036Z,13.00
2022-09-11T23:29:55.918Z,13.35
2022-09-11T23:32:22.748Z,13.02
2022-09-11T23:34:49.549Z,13.55
2022-09-11T23:37:16.322Z,14.93
2022-09-11T23:39:43.180Z,14.30
2022-09-11T23:42:10.060Z,14.70
2022-09-11T23:44:36.841Z,13.95
2022-09-11T23:47:03.894Z,14.02
2022-09-11T23:49:35.552Z,13.88
2022-09-11T23:52:04.051Z,13.23
2022-09-11T23:54:30.838Z,12.32
2022-09-11T23:56:57.914Z,13.40
2022-09-11T23:59:24.774Z,12.80
